^^

Nearby METAR Reports

METAR (Meteorological Aerodrome Report) are Airport generated local weather condition reports for use, predominantly by pilots, these reports are also used as part of compliment of data sets required for Chatteris Weathers prediction software - WxSim.

EGUN - Mildenhall Raf, United Kingdom
Distance from station: ESE 19mi, 31km
Updated: 19/01/2020 11:56
Clear
Clear
 Wind from N
Wind: N 5 mph , 7 km/h
Temperature: 4°C
Wind Chill: 2°C
Dew Point: 0°C
Humidity: 75%
Barometer: 1044.7 hPa
Clouds: Clear
Visibility: 6 miles , 10 km
2020/01/19 11:56 EGUN 191156Z 35004KT 9999 CLR 04/00 A3085 RMK SLPNO WND DATA ESTMD ALSTG ESTMD RVRNO $
EGSC - Cambridge, United Kingdom
Distance from station: SSE 20mi, 32km
Updated: 17/01/2020 17:50
NOT Current
Clear
Clear
 Wind from SW
Wind: SW 10 mph , 17 km/h
Temperature: 5°C
Wind Chill: 2°C
Dew Point: 2°C
Humidity: 81%
Barometer: 1015 hPa
Summary: Clear
Visibility: greater than 7 miles , 10 km
2020/01/17 17:50 EGSC 171750Z 23009KT CAVOK 05/02 Q1015
 
EGUL - Lakenheath Raf, United Kingdom
Distance from station: E 22mi, 36km
Updated: 19/01/2020 11:56
Clear
Clear
 Wind from calm
Wind: Calm
Temperature: 5°C
Dew Point: 0°C
Humidity: 70%
Barometer: 1044.7 hPa
Clouds: Clear
Visibility: 6 miles , 10 km
2020/01/19 11:56 EGUL 191156Z AUTO 00000KT 9999 CLR 05/00 A3085 RMK AO2 SLP451 T00450003 10045 21032 52021 $
EGXT - Wittering Raf, United Kingdom
Distance from station: WNW 24mi, 38km
Updated: 19/01/2020 11:50
Clear
Clear
 Wind from WNW
Wind: WNW 6 mph , 9 km/h
Temperature: 6°C
Wind Chill: 4°C
Dew Point: 1°C
Humidity: 71%
Barometer: 1044 hPa
Clouds: Clear
Visibility: 6 miles , 10 km
2020/01/19 11:50 EGXT 191150Z AUTO 30005KT 9999 NCD 06/01 Q1044
 
EGYH - Holbeach (aut), United Kingdom
Distance from station: N 27mi, 44km
Updated: 17/01/2020 10:50
NOT Current
Clear
Clear
 Wind from SW
Wind: SW 23 mph , 37 km/h
Temperature: 9°C
Wind Chill: 4°C
Dew Point: 7°C
Humidity: 87%
Barometer: 1007 hPa
Summary: Clear
Visibility: greater than 7 miles , 10 km
2020/01/17 10:50 EGYH 171050Z 23020KT CAVOK 09/07 Q1007 RMK BLU
EGSS - Stansted Airport, United Kingdom
Distance from station: SE 11mi, 18km
Updated: 19/01/2020 12:20
Clear
Clear
 Wind from N
Wind: N 8 mph , 13 km/h
Temperature: 5°C
Wind Chill: 2°C
Dew Point: 1°C
Humidity: 76%
Barometer: 1045 hPa
Clouds: Clear
Visibility: 6 miles , 10 km
2020/01/19 12:20 EGSS 191220Z AUTO 35007KT 9999 NCD 05/01 Q1045
 
EGGW - Luton Airport, United Kingdom
Distance from station: WSW 19mi, 31km
Updated: 19/01/2020 12:20
Clear
Clear
 Wind from N
Wind: N 7 mph , 11 km/h
Temperature: 5°C
Wind Chill: 2°C
Dew Point: 1°C
Humidity: 76%
Barometer: 1045 hPa
Clouds: Clear
Visibility: 6 miles , 10 km
2020/01/19 12:20 EGGW 191220Z AUTO 35006KT 9999 NCD 05/01 Q1045
EGLL - London/Heathrow, United Kingdom
Distance from station: SSW 41mi, 66km
Updated: 19/01/2020 12:20
Clear
Clear
 Wind from varies
Wind: varies 2 mph , 4 km/h
Temperature: 6°C
Dew Point: 2°C
Humidity: 76%
Barometer: 1046 hPa
Clouds: Clear
Visibility: 6 miles , 10 km
2020/01/19 12:20 EGLL 191220Z AUTO VRB02KT 9999 NCD 06/02 Q1046 NOSIG
 
EGKK - London/Gatwick A, United Kingdom
Distance from station: S 60mi, 97km
Updated: 19/01/2020 12:20
Clear
Clear
 Wind from WNW
Wind: WNW 9 mph , 15 km/h
Temperature: 6°C
Wind Chill: 3°C
Dew Point: 1°C
Humidity: 71%
Barometer: 1045 hPa
Summary: Clear
Visibility: greater than 7 miles , 10 km
2020/01/19 12:20 EGKK 191220Z 30008KT 260V320 CAVOK 06/01 Q1045
EGUY - Wyton Raf, United Kingdom
Distance from station: SW 11mi, 18km
Updated: 04/10/2015 09:50
NOT Current
Haze, Clear
Haze, Clear
 Wind from SSE
Wind: SSE 2 mph , 4 km/h
Temperature: 11°C
Dew Point: 7°C
Humidity: 77%
Barometer: 1014 hPa
Summary: Haze
Clouds: Clear
Visibility: 4 miles , 6 km
2015/10/04 08:50 EGUY 040850Z 15002KT 6000 HZ SKC 11/07 Q1014 WHT

Met Office METAR data link, decoding METAR data code.